Bannock, OH (43972)

6:39 PM EDT on August 21, 2014 (GMT -0400)
Crawford Heights | Change Station
CLOSE
Current Station
Personal Weather Station
Location: Martins Ferry, OH
Elevation: 1109 ft
Nearby Weather Stations

Elev 1109 ft 40.09 °N, 80.75 °W | Updated 12 minutes ago

Partly Cloudy
Partly Cloudy
74.3 °F
Feels Like 75 °F
N
1.1
Wind Variable Wind from SSW

Today
High -- | Low -- °F
--% Chance of Precip.
Yesterday
High -- | Low -- °F
Precip. -- in
6:41 AM 8:12 PM
Waning Crescent, 12% visible
Pressure 30.03 in
Visibility 10.0 miles
Clouds Few 1200 ft
Heat Index 75 °F
Dew Point 68 °F
Humidity 80%
Rainfall 0.00 in
Snow Depth Not available.
UV 2 out of 12
Pollen 9.30 out of 12
Air Quality Not available.
Flu Activity Not available.
METAR KHLG 212153Z 21007KT 10SM FEW012 22/20 A3004 RMK AO2 SLP169 T02220200

More Conditions Fewer Conditions

Pressure 30.03 in
Visibility 10.0 miles
Clouds Few 1200 ft
Heat Index 75 °F
Dew Point 68 °F
Humidity 80%
Rainfall 0.00 in
Snow Depth Not available.
UV 2 out of 12
Pollen 9.30 out of 12
Air Quality Not available.
Flu Activity Not available.
METAR KHLG 212153Z 21007KT 10SM FEW012 22/20 A3004 RMK AO2 SLP169 T02220200

More Conditions Fewer Conditions

10-Day Weather Forecast

Almanac

Astronomy

Aug. 21, 2014 Rise Set
Actual Time 6:41 AM EDT 8:12 PM EDT
Civil Twilight 6:12 AM EDT 8:40 PM EDT
Nautical Twilight 5:38 AM EDT 9:15 PM EDT
Astronomical Twilight 5:01 AM EDT 9:51 PM EDT
Moon 3:10 AM EDT 5:40 PM EDT
Length of Visible Light 14h 28m
Length of Day
13h 31m
Tomorrow will be 2m 24s shorter.
Waning Crescent, 12% of the Moon is Illuminated
Today
Waning Crescent
Aug 25
New
Sep 2
First Quarter
Sep 8
Full
Sep 15
Last Quarter

Today's Extremes

State Highs State Lows

Community

WunderPhotos

Upload Photos

1,746,041 photos uploaded!

WunderBlogs® & News

Nearby

Snow Depth

Station Depth Elevation
No new snow has been reported.

Earthquake Activity

City Distance Mag. Time & Date
No recent earthquake activity has been reported nearby.
Minimum magnitude displayed is 2.5.

Coastal Water Temperatures

Place Temperature
No Stations Reporting

Nearby Weather Stations